sensor_id;sensor_type;location;lat;lon;timestamp;pressure;altitude;pressure_sealevel;temperature;humidity
13767;BME280;47980;48.794;9.176;2023-04-08T00:01:42;98493.88;;;9.63;97.16
13767;BME280;47980;48.794;9.176;2023-04-08T00:04:13;98496.47;;;9.54;96.75
13767;BME280;47980;48.794;9.176;2023-04-08T00:06:45;98494.75;;;9.50;97.51
13767;BME280;47980;48.794;9.176;2023-04-08T00:09:18;98501.91;;;9.49;98.34
13767;BME280;47980;48.794;9.176;2023-04-08T00:11:51;98495.69;;;9.45;97.48
13767;BME280;47980;48.794;9.176;2023-04-08T00:14:23;98500.53;;;9.52;97.49
13767;BME280;47980;48.794;9.176;2023-04-08T00:16:54;98502.88;;;9.53;97.12
13767;BME280;47980;48.794;9.176;2023-04-08T00:19:26;98498.94;;;9.42;97.09
13767;BME280;47980;48.794;9.176;2023-04-08T00:21:58;98499.53;;;9.39;97.91
13767;BME280;47980;48.794;9.176;2023-04-08T00:24:31;98496.28;;;9.42;98.71
13767;BME280;47980;48.794;9.176;2023-04-08T00:27:02;98497.25;;;9.46;98.07
13767;BME280;47980;48.794;9.176;2023-04-08T00:29:34;98492.88;;;9.42;96.95
13767;BME280;47980;48.794;9.176;2023-04-08T00:32:06;98497.69;;;9.39;98.04
13767;BME280;47980;48.794;9.176;2023-04-08T00:34:37;98501.41;;;9.38;98.84
13767;BME280;47980;48.794;9.176;2023-04-08T00:37:09;98504.03;;;9.30;97.40
13767;BME280;47980;48.794;9.176;2023-04-08T00:39:42;98498.09;;;9.24;99.87
13767;BME280;47980;48.794;9.176;2023-04-08T00:42:13;98504.66;;;9.27;99.47
13767;BME280;47980;48.794;9.176;2023-04-08T00:44:45;98510.41;;;9.29;99.57
13767;BME280;47980;48.794;9.176;2023-04-08T00:47:17;98505.88;;;9.29;100.00
13767;BME280;47980;48.794;9.176;2023-04-08T00:49:49;98512.31;;;9.37;98.71
13767;BME280;47980;48.794;9.176;2023-04-08T00:52:20;98511.09;;;9.43;98.73
13767;BME280;47980;48.794;9.176;2023-04-08T00:54:54;98515.25;;;9.35;99.01
13767;BME280;47980;48.794;9.176;2023-04-08T00:57:26;98514.16;;;9.36;98.47
13767;BME280;47980;48.794;9.176;2023-04-08T00:59:58;98508.50;;;9.60;95.46
13767;BME280;47980;48.794;9.176;2023-04-08T01:02:34;98511.09;;;9.43;97.70
13767;BME280;47980;48.794;9.176;2023-04-08T01:05:13;98510.22;;;9.25;98.02
13767;BME280;47980;48.794;9.176;2023-04-08T01:07:47;98515.97;;;9.19;98.95
13767;BME280;47980;48.794;9.176;2023-04-08T01:10:22;98511.66;;;9.31;96.87
13767;BME280;47980;48.794;9.176;2023-04-08T01:12:59;98514.06;;;9.42;97.13
13767;BME280;47980;48.794;9.176;2023-04-08T01:15:33;98511.94;;;9.21;98.12
13767;BME280;47980;48.794;9.176;2023-04-08T01:18:09;98504.31;;;9.20;98.54
13767;BME280;47980;48.794;9.176;2023-04-08T01:20:43;98509.44;;;9.16;98.37
13767;BME280;47980;48.794;9.176;2023-04-08T01:23:19;98514.28;;;9.23;98.11
13767;BME280;47980;48.794;9.176;2023-04-08T01:25:55;98510.81;;;9.13;98.94
13767;BME280;47980;48.794;9.176;2023-04-08T01:28:28;98516.44;;;9.21;98.99
13767;BME280;47980;48.794;9.176;2023-04-08T01:31:01;98506.63;;;9.21;98.29
13767;BME280;47980;48.794;9.176;2023-04-08T01:33:33;98511.75;;;9.18;98.26
13767;BME280;47980;48.794;9.176;2023-04-08T01:36:06;98518.31;;;9.20;97.56
13767;BME280;47980;48.794;9.176;2023-04-08T01:38:39;98516.97;;;9.31;96.92
13767;BME280;47980;48.794;9.176;2023-04-08T01:41:13;98509.19;;;9.35;97.14
13767;BME280;47980;48.794;9.176;2023-04-08T01:43:46;98514.81;;;9.33;97.35
13767;BME280;47980;48.794;9.176;2023-04-08T01:46:19;98512.84;;;9.16;96.67
13767;BME280;47980;48.794;9.176;2023-04-08T01:48:53;98504.34;;;9.28;98.22
13767;BME280;47980;48.794;9.176;2023-04-08T01:51:25;98512.53;;;9.18;96.99
13767;BME280;47980;48.794;9.176;2023-04-08T01:53:57;98503.47;;;9.10;98.59
13767;BME280;47980;48.794;9.176;2023-04-08T01:56:32;98501.16;;;9.09;99.13
13767;BME280;47980;48.794;9.176;2023-04-08T01:59:09;98501.44;;;9.07;97.99
13767;BME280;47980;48.794;9.176;2023-04-08T02:01:43;98510.59;;;9.01;97.72
13767;BME280;47980;48.794;9.176;2023-04-08T02:04:15;98506.34;;;8.91;100.00
13767;BME280;47980;48.794;9.176;2023-04-08T02:06:46;98512.84;;;8.85;100.00
13767;BME280;47980;48.794;9.176;2023-04-08T02:09:18;98518.63;;;8.87;98.84
13767;BME280;47980;48.794;9.176;2023-04-08T02:11:51;98516.78;;;8.97;98.27
13767;BME280;47980;48.794;9.176;2023-04-08T02:14:23;98523.53;;;9.03;98.88
13767;BME280;47980;48.794;9.176;2023-04-08T02:17:02;98513.25;;;9.01;98.21
13767;BME280;47980;48.794;9.176;2023-04-08T02:19:40;98513.72;;;9.03;100.00
13767;BME280;47980;48.794;9.176;2023-04-08T02:22:18;98510.44;;;8.98;100.00
13767;BME280;47980;48.794;9.176;2023-04-08T02:24:54;98512.94;;;9.03;99.90
13767;BME280;47980;48.794;9.176;2023-04-08T02:27:28;98517.75;;;9.01;99.41
13767;BME280;47980;48.794;9.176;2023-04-08T02:30:01;98514.94;;;8.97;100.00
13767;BME280;47980;48.794;9.176;2023-04-08T02:32:34;98521.63;;;8.95;99.17
13767;BME280;47980;48.794;9.176;2023-04-08T02:35:08;98506.09;;;9.02;99.14
13767;BME280;47980;48.794;9.176;2023-04-08T02:37:41;98510.28;;;9.03;99.86
13767;BME280;47980;48.794;9.176;2023-04-08T02:40:24;98513.97;;;8.93;99.68
13767;BME280;47980;48.794;9.176;2023-04-08T02:42:58;98514.09;;;8.88;100.00
13767;BME280;47980;48.794;9.176;2023-04-08T02:45:34;98514.09;;;8.88;100.00
13767;BME280;47980;48.794;9.176;2023-04-08T02:48:08;98515.97;;;8.87;100.00
13767;BME280;47980;48.794;9.176;2023-04-08T02:50:40;98509.53;;;8.80;100.00
13767;BME280;47980;48.794;9.176;2023-04-08T02:53:11;98508.94;;;8.83;100.00
13767;BME280;47980;48.794;9.176;2023-04-08T02:55:43;98509.22;;;8.81;100.00
13767;BME280;47980;48.794;9.176;2023-04-08T02:58:16;98512.19;;;8.80;100.00
13767;BME280;47980;48.794;9.176;2023-04-08T03:00:48;98513.75;;;8.81;100.00
13767;BME280;47980;48.794;9.176;2023-04-08T03:03:19;98513.16;;;8.84;100.00
13767;BME280;47980;48.794;9.176;2023-04-08T03:05:57;98515.00;;;8.83;100.00
13767;BME280;47980;48.794;9.176;2023-04-08T03:08:28;98511.06;;;8.72;100.00
13767;BME280;47980;48.794;9.176;2023-04-08T03:11:00;98513.56;;;8.77;100.00
13767;BME280;47980;48.794;9.176;2023-04-08T03:13:33;98517.66;;;8.83;99.75
13767;BME280;47980;48.794;9.176;2023-04-08T03:16:06;98516.88;;;8.83;100.00
13767;BME280;47980;48.794;9.176;2023-04-08T03:18:37;98516.53;;;8.76;100.00
13767;BME280;47980;48.794;9.176;2023-04-08T03:21:09;98515.78;;;8.84;99.56
13767;BME280;47980;48.794;9.176;2023-04-08T03:23:40;98509.38;;;8.76;100.00
13767;BME280;47980;48.794;9.176;2023-04-08T03:26:12;98510.97;;;8.63;99.97
13767;BME280;47980;48.794;9.176;2023-04-08T03:28:45;98505.22;;;8.61;100.00
13767;BME280;47980;48.794;9.176;2023-04-08T03:31:16;98513.88;;;8.76;100.00
13767;BME280;47980;48.794;9.176;2023-04-08T03:33:50;98518.84;;;8.77;99.53
13767;BME280;47980;48.794;9.176;2023-04-08T03:36:21;98520.53;;;8.73;99.03
13767;BME280;47980;48.794;9.176;2023-04-08T03:38:53;98521.16;;;8.70;99.92
13767;BME280;47980;48.794;9.176;2023-04-08T03:41:25;98515.44;;;8.77;99.73
13767;BME280;47980;48.794;9.176;2023-04-08T03:43:58;98524.63;;;8.79;99.62
13767;BME280;47980;48.794;9.176;2023-04-08T03:46:29;98514.47;;;8.73;99.59
13767;BME280;47980;48.794;9.176;2023-04-08T03:49:01;98526.16;;;8.72;99.94
13767;BME280;47980;48.794;9.176;2023-04-08T03:51:32;98524.81;;;8.83;99.91
13767;BME280;47980;48.794;9.176;2023-04-08T03:54:04;98527.47;;;8.83;99.37
13767;BME280;47980;48.794;9.176;2023-04-08T03:56:36;98526.94;;;8.72;100.00
13767;BME280;47980;48.794;9.176;2023-04-08T03:59:09;98522.88;;;8.75;99.78
13767;BME280;47980;48.794;9.176;2023-04-08T04:01:41;98522.28;;;8.78;99.44
13767;BME280;47980;48.794;9.176;2023-04-08T04:04:12;98524.16;;;8.77;99.47
13767;BME280;47980;48.794;9.176;2023-04-08T04:06:45;98518.75;;;8.82;99.42
13767;BME280;47980;48.794;9.176;2023-04-08T04:09:16;98525.41;;;8.80;100.00
13767;BME280;47980;48.794;9.176;2023-04-08T04:11:48;98522.00;;;8.79;99.37
13767;BME280;47980;48.794;9.176;2023-04-08T04:14:21;98518.22;;;8.72;100.00
13767;BME280;47980;48.794;9.176;2023-04-08T04:16:53;98519.78;;;8.73;100.00
13767;BME280;47980;48.794;9.176;2023-04-08T04:19:28;98523.91;;;8.65;99.91
13767;BME280;47980;48.794;9.176;2023-04-08T04:22:00;98515.44;;;8.54;100.00
13767;BME280;47980;48.794;9.176;2023-04-08T04:24:32;98519.59;;;8.47;100.00
13767;BME280;47980;48.794;9.176;2023-04-08T04:27:03;98518.91;;;8.41;100.00
13767;BME280;47980;48.794;9.176;2023-04-08T04:29:36;98529.88;;;8.34;100.00
13767;BME280;47980;48.794;9.176;2023-04-08T04:32:08;98527.25;;;8.20;100.00
13767;BME280;47980;48.794;9.176;2023-04-08T04:34:39;98530.09;;;8.24;100.00
13767;BME280;47980;48.794;9.176;2023-04-08T04:37:11;98527.69;;;8.14;100.00
13767;BME280;47980;48.794;9.176;2023-04-08T04:39:43;98533.38;;;8.07;100.00
13767;BME280;47980;48.794;9.176;2023-04-08T04:42:14;98532.50;;;7.98;100.00
13767;BME280;47980;48.794;9.176;2023-04-08T04:44:47;98538.09;;;7.96;100.00
13767;BME280;47980;48.794;9.176;2023-04-08T04:47:19;98536.72;;;7.99;100.00
13767;BME280;47980;48.794;9.176;2023-04-08T04:49:50;98531.34;;;7.90;100.00
13767;BME280;47980;48.794;9.176;2023-04-08T04:52:22;98534.47;;;7.79;100.00
13767;BME280;47980;48.794;9.176;2023-04-08T04:54:55;98536.03;;;7.80;100.00
13767;BME280;47980;48.794;9.176;2023-04-08T04:57:27;98539.25;;;7.90;100.00
13767;BME280;47980;48.794;9.176;2023-04-08T05:00:00;98544.94;;;7.84;100.00
13767;BME280;47980;48.794;9.176;2023-04-08T05:02:31;98543.88;;;7.85;100.00
13767;BME280;47980;48.794;9.176;2023-04-08T05:05:03;98557.94;;;7.80;100.00
13767;BME280;47980;48.794;9.176;2023-04-08T05:07:35;98558.63;;;7.72;100.00
13767;BME280;47980;48.794;9.176;2023-04-08T05:10:08;98555.31;;;7.80;100.00
13767;BME280;47980;48.794;9.176;2023-04-08T05:12:40;98565.97;;;7.75;100.00
13767;BME280;47980;48.794;9.176;2023-04-08T05:15:13;98567.34;;;7.72;100.00
13767;BME280;47980;48.794;9.176;2023-04-08T05:17:44;98562.94;;;7.82;100.00
13767;BME280;47980;48.794;9.176;2023-04-08T05:20:16;98567.84;;;7.75;100.00
13767;BME280;47980;48.794;9.176;2023-04-08T05:22:48;98571.75;;;7.77;100.00
13767;BME280;47980;48.794;9.176;2023-04-08T05:25:20;98562.56;;;7.75;100.00
13767;BME280;47980;48.794;9.176;2023-04-08T05:27:51;98569.31;;;7.81;100.00
13767;BME280;47980;48.794;9.176;2023-04-08T05:30:24;98573.31;;;7.78;100.00
13767;BME280;47980;48.794;9.176;2023-04-08T05:32:56;98573.31;;;7.78;100.00
13767;BME280;47980;48.794;9.176;2023-04-08T05:35:27;98570.28;;;7.85;100.00
13767;BME280;47980;48.794;9.176;2023-04-08T05:37:59;98577.13;;;8.00;100.00
13767;BME280;47980;48.794;9.176;2023-04-08T05:40:31;98585.31;;;8.12;100.00
13767;BME280;47980;48.794;9.176;2023-04-08T05:43:02;98585.00;;;8.27;100.00
13767;BME280;47980;48.794;9.176;2023-04-08T05:45:35;98586.56;;;8.28;100.00
13767;BME280;47980;48.794;9.176;2023-04-08T05:48:07;98587.84;;;8.44;100.00
13767;BME280;47980;48.794;9.176;2023-04-08T05:50:38;98587.88;;;8.53;100.00
13767;BME280;47980;48.794;9.176;2023-04-08T05:53:10;98591.00;;;8.69;100.00
13767;BME280;47980;48.794;9.176;2023-04-08T05:55:41;98593.69;;;8.55;99.92
13767;BME280;47980;48.794;9.176;2023-04-08T05:58:13;98598.63;;;8.71;99.79
13767;BME280;47980;48.794;9.176;2023-04-08T06:00:46;98601.66;;;8.64;100.00
13767;BME280;47980;48.794;9.176;2023-04-08T06:03:18;98602.09;;;8.57;100.00
13767;BME280;47980;48.794;9.176;2023-04-08T06:05:49;98610.34;;;8.78;100.00
13767;BME280;47980;48.794;9.176;2023-04-08T06:08:21;98608.69;;;8.82;100.00
13767;BME280;47980;48.794;9.176;2023-04-08T06:10:52;98603.41;;;8.82;100.00
13767;BME280;47980;48.794;9.176;2023-04-08T06:13:24;98596.69;;;9.07;98.29
13767;BME280;47980;48.794;9.176;2023-04-08T06:15:57;98607.63;;;9.14;97.03
13767;BME280;47980;48.794;9.176;2023-04-08T06:18:30;98614.31;;;8.89;97.41
13767;BME280;47980;48.794;9.176;2023-04-08T06:21:02;98618.31;;;9.01;97.62
13767;BME280;47980;48.794;9.176;2023-04-08T06:23:33;98615.13;;;9.12;95.76
13767;BME280;47980;48.794;9.176;2023-04-08T06:26:05;98612.47;;;9.12;96.66
13767;BME280;47980;48.794;9.176;2023-04-08T06:28:37;98622.81;;;9.23;96.66
13767;BME280;47980;48.794;9.176;2023-04-08T06:31:11;98617.31;;;9.42;95.78
13767;BME280;47980;48.794;9.176;2023-04-08T06:33:42;98616.44;;;9.55;94.81
13767;BME280;47980;48.794;9.176;2023-04-08T06:36:14;98618.44;;;9.49;92.63
13767;BME280;47980;48.794;9.176;2023-04-08T06:38:45;98623.13;;;9.52;92.75
13767;BME280;47980;48.794;9.176;2023-04-08T06:41:17;98627.72;;;9.69;93.10
13767;BME280;47980;48.794;9.176;2023-04-08T06:43:50;98631.53;;;9.85;91.85
13767;BME280;47980;48.794;9.176;2023-04-08T06:46:23;98631.53;;;9.85;91.51
13767;BME280;47980;48.794;9.176;2023-04-08T06:48:54;98623.88;;;9.84;91.30
13767;BME280;47980;48.794;9.176;2023-04-08T06:51:26;98635.56;;;9.83;91.24
13767;BME280;47980;48.794;9.176;2023-04-08T06:53:58;98639.94;;;9.87;91.33
13767;BME280;47980;48.794;9.176;2023-04-08T06:56:30;98643.94;;;9.76;90.05
13767;BME280;47980;48.794;9.176;2023-04-08T06:59:01;98646.88;;;9.66;90.92
13767;BME280;47980;48.794;9.176;2023-04-08T07:01:35;98636.59;;;10.04;89.38
13767;BME280;47980;48.794;9.176;2023-04-08T07:04:06;98646.25;;;10.00;89.35
13767;BME280;47980;48.794;9.176;2023-04-08T07:06:38;98641.66;;;9.83;89.46
13767;BME280;47980;48.794;9.176;2023-04-08T07:09:10;98644.19;;;9.97;90.41
13767;BME280;47980;48.794;9.176;2023-04-08T07:11:41;98643.69;;;9.86;90.86
13767;BME280;47980;48.794;9.176;2023-04-08T07:14:13;98642.50;;;10.01;89.76
13767;BME280;47980;48.794;9.176;2023-04-08T07:16:46;98649.31;;;9.85;89.89
13767;BME280;47980;48.794;9.176;2023-04-08T07:19:18;98654.53;;;10.16;88.58
13767;BME280;47980;48.794;9.176;2023-04-08T07:21:50;98648.72;;;9.97;88.21
13767;BME280;47980;48.794;9.176;2023-04-08T07:24:21;98656.13;;;10.17;88.04
13767;BME280;47980;48.794;9.176;2023-04-08T07:26:53;98662.81;;;10.15;87.17
13767;BME280;47980;48.794;9.176;2023-04-08T07:29:26;98653.06;;;10.41;85.79
13767;BME280;47980;48.794;9.176;2023-04-08T07:31:59;98658.13;;;10.77;84.63
13767;BME280;47980;48.794;9.176;2023-04-08T07:34:33;98654.06;;;10.97;82.39
13767;BME280;47980;48.794;9.176;2023-04-08T07:37:05;98663.34;;;10.25;82.58
13767;BME280;47980;48.794;9.176;2023-04-08T07:39:36;98658.53;;;10.45;84.06
13767;BME280;47980;48.794;9.176;2023-04-08T07:42:08;98656.16;;;10.26;85.75
13767;BME280;47980;48.794;9.176;2023-04-08T07:44:40;98661.88;;;10.68;84.95
13767;BME280;47980;48.794;9.176;2023-04-08T07:47:13;98667.34;;;10.71;83.54
13767;BME280;47980;48.794;9.176;2023-04-08T07:49:45;98674.38;;;10.93;80.64
13767;BME280;47980;48.794;9.176;2023-04-08T07:52:17;98678.13;;;11.01;79.87
13767;BME280;47980;48.794;9.176;2023-04-08T07:54:48;98665.16;;;11.17;77.98
13767;BME280;47980;48.794;9.176;2023-04-08T07:57:20;98664.59;;;11.58;75.28
13767;BME280;47980;48.794;9.176;2023-04-08T07:59:52;98668.41;;;10.70;78.83
13767;BME280;47980;48.794;9.176;2023-04-08T08:02:25;98666.09;;;10.86;77.59
13767;BME280;47980;48.794;9.176;2023-04-08T08:04:56;98667.78;;;11.25;76.89
13767;BME280;47980;48.794;9.176;2023-04-08T08:07:28;98673.84;;;11.43;75.64
13767;BME280;47980;48.794;9.176;2023-04-08T08:10:00;98678.19;;;11.74;73.14
13767;BME280;47980;48.794;9.176;2023-04-08T08:12:31;98682.59;;;11.52;73.19
13767;BME280;47980;48.794;9.176;2023-04-08T08:15:03;98684.66;;;10.77;75.96
13767;BME280;47980;48.794;9.176;2023-04-08T08:17:37;98687.97;;;11.00;76.08
13767;BME280;47980;48.794;9.176;2023-04-08T08:20:09;98685.28;;;11.35;73.68
13767;BME280;47980;48.794;9.176;2023-04-08T08:22:41;98682.16;;;11.07;76.39
13767;BME280;47980;48.794;9.176;2023-04-08T08:25:14;98687.63;;;11.45;73.38
13767;BME280;47980;48.794;9.176;2023-04-08T08:27:46;98687.34;;;11.12;75.20
13767;BME280;47980;48.794;9.176;2023-04-08T08:30:18;98686.50;;;11.46;75.24
13767;BME280;47980;48.794;9.176;2023-04-08T08:32:52;98683.41;;;11.36;74.21
13767;BME280;47980;48.794;9.176;2023-04-08T08:35:25;98685.13;;;11.31;73.79
13767;BME280;47980;48.794;9.176;2023-04-08T08:37:57;98688.41;;;11.20;75.35
13767;BME280;47980;48.794;9.176;2023-04-08T08:40:28;98689.09;;;11.90;71.68
13767;BME280;47980;48.794;9.176;2023-04-08T08:43:01;98692.97;;;12.01;70.77
13767;BME280;47980;48.794;9.176;2023-04-08T08:45:33;98698.78;;;12.33;68.09
13767;BME280;47980;48.794;9.176;2023-04-08T08:48:06;98696.13;;;12.33;68.57
13767;BME280;47980;48.794;9.176;2023-04-08T08:50:38;98699.09;;;12.31;69.33
13767;BME280;47980;48.794;9.176;2023-04-08T08:53:10;98697.88;;;11.73;71.93
13767;BME280;47980;48.794;9.176;2023-04-08T08:55:42;98695.66;;;11.84;68.15
13767;BME280;47980;48.794;9.176;2023-04-08T08:58:14;98699.25;;;12.56;65.74
13767;BME280;47980;48.794;9.176;2023-04-08T09:00:45;98707.03;;;12.40;68.27
13767;BME280;47980;48.794;9.176;2023-04-08T09:03:19;98706.59;;;12.59;66.22
13767;BME280;47980;48.794;9.176;2023-04-08T09:05:52;98697.50;;;12.60;64.48
13767;BME280;47980;48.794;9.176;2023-04-08T09:08:25;98710.81;;;12.39;66.45
13767;BME280;47980;48.794;9.176;2023-04-08T09:11:10;98701.34;;;12.12;66.65
13767;BME280;47980;48.794;9.176;2023-04-08T09:13:43;98704.09;;;12.62;63.30
13767;BME280;47980;48.794;9.176;2023-04-08T09:16:15;98707.34;;;12.68;63.79
13767;BME280;47980;48.794;9.176;2023-04-08T09:18:49;98705.72;;;12.75;62.04
13767;BME280;47980;48.794;9.176;2023-04-08T09:21:22;98720.97;;;12.66;61.40
13767;BME280;47980;48.794;9.176;2023-04-08T09:23:56;98720.16;;;12.74;63.60
13767;BME280;47980;48.794;9.176;2023-04-08T09:26:28;98710.44;;;12.70;63.56
13767;BME280;47980;48.794;9.176;2023-04-08T09:29:01;98719.22;;;12.70;60.71
13767;BME280;47980;48.794;9.176;2023-04-08T09:31:34;98704.69;;;12.38;58.31
13767;BME280;47980;48.794;9.176;2023-04-08T09:34:11;98709.53;;;12.66;59.30
13767;BME280;47980;48.794;9.176;2023-04-08T09:36:44;98711.94;;;13.21;59.30
13767;BME280;47980;48.794;9.176;2023-04-08T09:39:16;98708.19;;;12.81;58.33
13767;BME280;47980;48.794;9.176;2023-04-08T09:41:50;98706.94;;;12.57;60.04
13767;BME280;47980;48.794;9.176;2023-04-08T09:44:23;98711.50;;;12.77;59.55
13767;BME280;47980;48.794;9.176;2023-04-08T09:47:04;98714.13;;;13.07;58.18
13767;BME280;47980;48.794;9.176;2023-04-08T09:49:45;98715.66;;;13.50;54.55
13767;BME280;47980;48.794;9.176;2023-04-08T09:52:22;98713.66;;;13.80;53.20
13767;BME280;47980;48.794;9.176;2023-04-08T09:54:59;98708.91;;;13.11;55.76
13767;BME280;47980;48.794;9.176;2023-04-08T09:57:39;98708.03;;;12.86;55.32
13767;BME280;47980;48.794;9.176;2023-04-08T10:00:14;98716.38;;;13.17;54.83
13767;BME280;47980;48.794;9.176;2023-04-08T10:03:00;98715.59;;;13.17;54.06
13767;BME280;47980;48.794;9.176;2023-04-08T10:05:37;98723.25;;;13.60;52.91
13767;BME280;47980;48.794;9.176;2023-04-08T10:08:09;98723.94;;;13.69;51.78
13767;BME280;47980;48.794;9.176;2023-04-08T10:10:41;98709.59;;;14.32;51.90
13767;BME280;47980;48.794;9.176;2023-04-08T10:13:13;98708.91;;;14.23;50.82
13767;BME280;47980;48.794;9.176;2023-04-08T10:15:45;98713.34;;;13.28;51.92
13767;BME280;47980;48.794;9.176;2023-04-08T10:18:31;98718.25;;;13.26;50.27
13767;BME280;47980;48.794;9.176;2023-04-08T10:21:34;98711.91;;;13.09;51.10
13767;BME280;47980;48.794;9.176;2023-04-08T10:24:07;98713.03;;;12.58;54.97
13767;BME280;47980;48.794;9.176;2023-04-08T10:26:40;98719.63;;;13.02;55.61
13767;BME280;47980;48.794;9.176;2023-04-08T10:29:36;98708.34;;;13.05;54.21
13767;BME280;47980;48.794;9.176;2023-04-08T10:32:07;98712.28;;;12.99;51.59
13767;BME280;47980;48.794;9.176;2023-04-08T10:34:50;98713.19;;;13.03;53.76
13767;BME280;47980;48.794;9.176;2023-04-08T10:37:26;98712.22;;;12.87;53.89
13767;BME280;47980;48.794;9.176;2023-04-08T10:39:58;98718.09;;;13.01;53.75
13767;BME280;47980;48.794;9.176;2023-04-08T10:42:29;98712.88;;;12.84;52.96
13767;BME280;47980;48.794;9.176;2023-04-08T10:45:01;98706.66;;;12.50;54.11
13767;BME280;47980;48.794;9.176;2023-04-08T10:47:33;98709.91;;;12.56;54.73
13767;BME280;47980;48.794;9.176;2023-04-08T10:50:11;98711.00;;;11.87;55.26
13767;BME280;47980;48.794;9.176;2023-04-08T10:52:47;98714.41;;;12.34;55.89
13767;BME280;47980;48.794;9.176;2023-04-08T10:55:22;98711.69;;;12.13;54.98
13767;BME280;47980;48.794;9.176;2023-04-08T10:57:54;98711.31;;;12.23;53.64
13767;BME280;47980;48.794;9.176;2023-04-08T11:00:31;98710.00;;;12.00;52.28
13767;BME280;47980;48.794;9.176;2023-04-08T11:03:05;98719.78;;;11.70;52.09
13767;BME280;47980;48.794;9.176;2023-04-08T11:05:37;98708.81;;;11.89;53.21
13767;BME280;47980;48.794;9.176;2023-04-08T11:08:10;98715.53;;;11.86;54.07
13767;BME280;47980;48.794;9.176;2023-04-08T11:10:42;98709.19;;;12.08;53.08
13767;BME280;47980;48.794;9.176;2023-04-08T11:13:15;98718.94;;;11.95;54.52
13767;BME280;47980;48.794;9.176;2023-04-08T11:15:46;98715.84;;;12.32;53.63
13767;BME280;47980;48.794;9.176;2023-04-08T11:18:19;98716.25;;;12.42;52.95
13767;BME280;47980;48.794;9.176;2023-04-08T11:20:52;98721.38;;;12.47;52.51
13767;BME280;47980;48.794;9.176;2023-04-08T11:23:25;98723.44;;;12.92;52.90
13767;BME280;47980;48.794;9.176;2023-04-08T11:25:57;98713.88;;;13.00;52.82
13767;BME280;47980;48.794;9.176;2023-04-08T11:28:29;98713.53;;;12.21;53.82
13767;BME280;47980;48.794;9.176;2023-04-08T11:31:02;98712.97;;;12.66;52.06
13767;BME280;47980;48.794;9.176;2023-04-08T11:33:34;98711.84;;;12.17;52.39
13767;BME280;47980;48.794;9.176;2023-04-08T11:36:08;98706.97;;;12.48;52.58
13767;BME280;47980;48.794;9.176;2023-04-08T11:38:41;98704.66;;;12.47;51.83
13767;BME280;47980;48.794;9.176;2023-04-08T11:41:13;98712.56;;;11.88;53.64
13767;BME280;47980;48.794;9.176;2023-04-08T11:43:52;98708.16;;;12.30;53.46
13767;BME280;47980;48.794;9.176;2023-04-08T11:46:23;98704.50;;;12.43;53.11
13767;BME280;47980;48.794;9.176;2023-04-08T11:48:59;98709.56;;;12.36;53.40
13767;BME280;47980;48.794;9.176;2023-04-08T11:51:31;98695.66;;;12.81;51.38
13767;BME280;47980;48.794;9.176;2023-04-08T11:54:05;98719.63;;;12.22;52.33
13767;BME280;47980;48.794;9.176;2023-04-08T11:56:44;98707.78;;;12.70;52.50
13767;BME280;47980;48.794;9.176;2023-04-08T11:59:16;98706.88;;;12.66;52.98
13767;BME280;47980;48.794;9.176;2023-04-08T12:01:48;98711.63;;;12.60;52.51
13767;BME280;47980;48.794;9.176;2023-04-08T12:04:20;98708.06;;;12.18;52.69
13767;BME280;47980;48.794;9.176;2023-04-08T12:06:51;98700.69;;;12.23;53.36
13767;BME280;47980;48.794;9.176;2023-04-08T12:09:25;98704.78;;;12.21;55.98
13767;BME280;47980;48.794;9.176;2023-04-08T12:11:57;98713.47;;;12.60;55.41
13767;BME280;47980;48.794;9.176;2023-04-08T12:14:29;98715.75;;;12.11;54.62
13767;BME280;47980;48.794;9.176;2023-04-08T12:17:03;98709.84;;;12.43;53.83
13767;BME280;47980;48.794;9.176;2023-04-08T12:19:34;98707.22;;;12.35;53.05
13767;BME280;47980;48.794;9.176;2023-04-08T12:22:06;98721.44;;;12.68;54.05
13767;BME280;47980;48.794;9.176;2023-04-08T12:24:39;98720.47;;;12.73;52.29
13767;BME280;47980;48.794;9.176;2023-04-08T12:27:10;98713.88;;;12.49;54.05
13767;BME280;47980;48.794;9.176;2023-04-08T12:29:42;98718.66;;;12.86;51.98
13767;BME280;47980;48.794;9.176;2023-04-08T12:32:15;98718.47;;;12.02;54.72
13767;BME280;47980;48.794;9.176;2023-04-08T12:34:47;98714.50;;;12.46;54.08
13767;BME280;47980;48.794;9.176;2023-04-08T12:37:18;98722.84;;;12.36;53.32
13767;BME280;47980;48.794;9.176;2023-04-08T12:39:52;98716.13;;;11.83;55.70
13767;BME280;47980;48.794;9.176;2023-04-08T12:42:23;98717.31;;;12.12;54.46
13767;BME280;47980;48.794;9.176;2023-04-08T12:44:55;98719.97;;;12.50;53.36
13767;BME280;47980;48.794;9.176;2023-04-08T12:47:27;98716.22;;;12.51;53.71
13767;BME280;47980;48.794;9.176;2023-04-08T12:49:58;98717.94;;;12.97;53.29
13767;BME280;47980;48.794;9.176;2023-04-08T12:52:31;98714.22;;;12.10;54.87
13767;BME280;47980;48.794;9.176;2023-04-08T12:55:05;98710.56;;;12.52;53.48
13767;BME280;47980;48.794;9.176;2023-04-08T12:57:37;98710.72;;;12.18;55.21
13767;BME280;47980;48.794;9.176;2023-04-08T13:00:10;98711.59;;;12.31;54.44
13767;BME280;47980;48.794;9.176;2023-04-08T13:02:42;98711.22;;;12.11;55.51
13767;BME280;47980;48.794;9.176;2023-04-08T13:05:14;98708.63;;;12.62;53.77
13767;BME280;47980;48.794;9.176;2023-04-08T13:07:46;98710.22;;;13.05;53.27
13767;BME280;47980;48.794;9.176;2023-04-08T13:10:19;98711.03;;;12.55;53.60
13767;BME280;47980;48.794;9.176;2023-04-08T13:12:51;98711.91;;;12.67;53.42
13767;BME280;47980;48.794;9.176;2023-04-08T13:15:23;98715.22;;;12.35;55.05
13767;BME280;47980;48.794;9.176;2023-04-08T13:17:54;98706.66;;;12.50;55.82
13767;BME280;47980;48.794;9.176;2023-04-08T13:20:26;98710.38;;;12.28;54.68
13767;BME280;47980;48.794;9.176;2023-04-08T13:22:57;98713.34;;;12.56;54.82
13767;BME280;47980;48.794;9.176;2023-04-08T13:25:31;98710.34;;;11.90;56.62
13767;BME280;47980;48.794;9.176;2023-04-08T13:28:03;98704.84;;;12.42;55.69
13767;BME280;47980;48.794;9.176;2023-04-08T13:30:34;98710.28;;;12.75;55.04
13767;BME280;47980;48.794;9.176;2023-04-08T13:33:06;98703.06;;;12.16;55.89